Main page

Airports :

Christchurch, New Zealand

Christchurch International Airport

latitude: 43-29S, longitude: 172-33E, elevation: 38 m

Current weather observation

The report was made 16 minutes ago, at 14:30 UTC
Wind 1 kt from the West
Temperature 1°C
Humidity 100%
Pressure 1023 hPa
Visibility 10 km or more

METAR: NZCH 211430Z AUTO 27001KT 9999 NCD 01/01 Q1023 NOSIG

Time: 03:46 (14:46 UTC)


The report was made 3 hours and 39 minutes ago, at 11:07 UTC
Forecast valid from 21 at 12 UTC to 22 at 12 UTC
Wind 2 kt from variable directions
Visibility 10 km or more
no clouds below 1500 m and no cumulonimbus
Probability 40%
from 21 at 13 UTC to 21 at 19 UTC
Visibility: 0400 m
from 21 at 22 UTC to 22 at 01 UTC
Wind 15 kt from the East/Northeast
from 22 at 07 UTC to 22 at 10 UTC
Wind 5 kt from the East/Northeast

TAF: NZCH 211107Z 2112/2212 VRB02KT CAVOK PROB40 2113/2119 0400 FG BECMG 2122/2201 06015KT BECMG 2207/2210 06005KT


Weather observations and forecasts of more than 4000 airports (METAR and TAF reports).

The available stations are represented by yellow and red dots on the map.

Hover mouse over dot to see the name of the station.

Then click to see weather observations and forecasts.

To change the map : click on the green buttons with a black cross to zoom in, on the green button with a dash to zoom out, or on the green arrows for adjacent maps.